ADDS TAF Board (Experimental) INFO Settings
IDs: Format: Expanded Condensed

KBWI - Baltimore-Washington, MD, US

Issued at 1732 UTC 11 Feb 2016
Updated at: 1908 UTC 11 Feb 2016
Time1854Z 11/20Z 11/21Z 11/22Z 11/23Z 12/00Z 12/01Z 12/02Z 12/03Z 12/04Z 12/05Z 12/06Z 12/07Z 12/08Z
Type OBS PRVL PRVL PRVL PRVL PRVL PRVL PRVL PRVL PRVL PRVL PRVL PRVL PRVL
VIS 10 >6 >6 >6 >6 >6 >6 >6 >6 >6 >6 >6 >6 >6
CIG -- 50 50 50 50 -- -- -- -- -- -- -- -- --
Cover SCT BKN BKN BKN BKN FEW FEW FEW FEW FEW FEW FEW FEW FEW
FltCat VFR VFR VFR VFR VFR VFR VFR VFR VFR VFR VFR VFR VFR VFR
WX -- -- -- -- -- -- -- -- -- -- -- -- -- --
WDir 270 290 290 290 290 290 290 290 290 290 290 290 290 290
WSpd 20 17 17 17 17 11 11 11 11 11 11 7 7 7
WGst 29 27 27 27 27 19 19 19 19 19 19 -- -- --
R04/22
XWnd 17 17 17 17 17 11 11 11 11 11 11 7 7 7
XGst 24 26 26 26 26 19 19 19 19 19 19 -- -- --
HWnd -11 -4 -4 -4 -4 -2 -2 -2 -2 -2 -2 -2 -2 -2
HGst -16 -6 -6 -6 -6 -4 -4 -4 -4 -4 -4 -- -- --
R10/28
XWnd -1 5 5 5 5 3 3 3 3 3 3 2 2 2
XGst -2 7 7 7 7 5 5 5 5 5 5 -- -- --
HWnd -20 -16 -16 -16 -16 -11 -11 -11 -11 -11 -11 -7 -7 -7
HGst -29 -26 -26 -26 -26 -18 -18 -18 -18 -18 -18 -- -- --
R15/33
XWnd -16 -10 -10 -10 -10 -6 -6 -6 -6 -6 -6 -4 -4 -4
XGst -23 -15 -15 -15 -15 -11 -11 -11 -11 -11 -11 -- -- --
HWnd -12 -14 -14 -14 -14 -9 -9 -9 -9 -9 -9 -6 -6 -6
HGst -17 -22 -22 -22 -22 -16 -16 -16 -16 -16 -16 -- -- --

NOTE: TEMPO conditions in [brackets]. Keep in mind TEMPO conditions might be better (lower impact) than prevailing conditions.

Raw TAF
KBWI 111732Z 1118/1224 29017G27KT P6SM BKN050
  FM120000 29011G19KT P6SM FEW250
  FM120600 29007KT P6SM FEW250
  FM121400 24004KT P6SM BKN110
  FM121900 21008KT P6SM BKN060


Raw METAR
KBWI 111854Z 27020G29KT 10SM SCT060 M03/M17 A3009 RMK AO2 PK WND 29029/1853 SLP189 T10331172
KBWI 111754Z 29020G32KT 10SM SCT055 M03/M17 A3009 RMK AO2 PK WND 28032/1749 SLP192 T10331167 11033 21072 58001
KBWI 111654Z 30015G23KT 10SM BKN055 M04/M17 A3011 RMK AO2 PK WND 29031/1618 SLP196 VIRGA NW-E T10391167

METAR Board
Radar Display
Forecast Discussion

TAF Board Legend

Potential Impact
Threat None Slight Moderate High
Visibility (sm) ≥5.1 5.1>X≥3 3>X≥1 <1
Ceiling (100 ft) ≥30.1 30.1>X≥10 10>X≥5 <5
Wind Speed (kt) <10 10≤X<20 20≤X<30 ≥30
Wind Gust (kt) <15 15≤X<25 25≤X<35 ≥35
Weather No Wx Reported VCTS,-TS,-FZRA,SN TS,FZRA +TS,+FZRA,+SN